Time;durP1;ratioP1;P1;durP2;ratioP2;P2;SDS_P1;SDS_P2;PMS_P1;PMS_P2;Temp;Humidity;BMP_temperature;BMP_pressure;BME280_temperature;BME280_humidity;BME280_pressure;Samples;Min_cycle;Max_cycle;Signal;HPM_P1;HPM_P2
2021/06/01 00:01:43;;;;;;;12.33;5.70;;;;;;;11.98;100.00;99705.42;1746283;82;21019;-79
2021/06/01 00:04:10;;;;;;;8.65;5.00;;;;;;;11.99;100.00;99705.23;1746117;82;21055;-79
2021/06/01 00:06:38;;;;;;;11.15;5.20;;;;;;;11.98;100.00;99707.61;1746242;82;21039;-78
2021/06/01 00:09:07;;;;;;;8.23;5.15;;;;;;;11.99;100.00;99706.59;1747489;82;21279;-77
2021/06/01 00:11:38;;;;;;;14.98;5.85;;;;;;;11.97;100.00;99700.53;1747798;82;21063;-79
2021/06/01 00:14:06;;;;;;;8.23;5.08;;;;;;;11.97;100.00;99703.23;1747113;82;21071;-78
2021/06/01 00:16:33;;;;;;;8.68;5.05;;;;;;;11.95;100.00;99703.42;1745240;82;21051;-78
2021/06/01 00:19:00;;;;;;;10.15;5.80;;;;;;;11.93;100.00;99697.36;1745402;82;21122;-77
2021/06/01 00:21:27;;;;;;;9.35;5.25;;;;;;;11.89;100.00;99701.41;1745402;82;21083;-77
2021/06/01 00:23:54;;;;;;;10.23;5.55;;;;;;;11.82;100.00;99705.91;1745155;82;21612;-79
2021/06/01 00:26:21;;;;;;;9.65;5.60;;;;;;;11.77;100.00;99708.33;1745001;82;21064;-78
2021/06/01 00:28:50;;;;;;;12.25;6.30;;;;;;;11.72;100.00;99712.97;1744959;82;21071;-79
2021/06/01 00:31:17;;;;;;;10.45;6.25;;;;;;;11.68;100.00;99713.00;1744815;82;21066;-78
2021/06/01 00:33:44;;;;;;;10.10;5.75;;;;;;;11.65;100.00;99712.53;1745040;82;21051;-79
2021/06/01 00:36:10;;;;;;;9.85;5.92;;;;;;;11.62;100.00;99716.98;1745146;82;21008;-79
2021/06/01 00:38:37;;;;;;;11.63;5.95;;;;;;;11.58;100.00;99711.94;1745161;82;21600;-79
2021/06/01 00:41:05;;;;;;;11.70;6.78;;;;;;;11.56;100.00;99718.55;1744992;82;21167;-79
2021/06/01 00:43:31;;;;;;;11.83;6.15;;;;;;;11.52;100.00;99720.78;1732256;82;21046;-79
2021/06/01 00:45:59;;;;;;;10.53;5.85;;;;;;;11.50;100.00;99716.59;1683803;85;21054;-78
2021/06/01 00:48:25;;;;;;;10.80;6.00;;;;;;;11.49;100.00;99717.61;1683885;85;21034;-78
2021/06/01 00:50:52;;;;;;;10.28;5.60;;;;;;;11.46;100.00;99718.83;1683681;84;21610;-79
2021/06/01 00:53:19;;;;;;;10.18;5.78;;;;;;;11.43;100.00;99715.66;1683359;85;21086;-78
2021/06/01 00:55:46;;;;;;;9.05;5.53;;;;;;;11.37;100.00;99719.42;1709430;82;21094;-79
2021/06/01 00:58:13;;;;;;;10.70;5.83;;;;;;;11.35;100.00;99724.67;1747306;82;21106;-78
2021/06/01 01:03:25;;;;;;;9.60;5.90;;;;;;;11.32;100.00;99731.83;1746925;82;21087;-78
2021/06/01 01:05:55;;;;;;;10.40;5.67;;;;;;;11.31;100.00;99727.43;1746757;82;21055;-77
2021/06/01 01:08:45;;;;;;;12.23;6.50;;;;;;;11.30;100.00;99726.59;1746846;81;21059;-77
2021/06/01 01:11:30;;;;;;;12.15;6.80;;;;;;;11.31;100.00;99730.13;1741842;81;21122;-78
2021/06/01 01:14:02;;;;;;;12.65;6.75;;;;;;;11.30;100.00;99725.25;1745286;82;21004;-78
2021/06/01 01:16:30;;;;;;;10.85;6.42;;;;;;;11.28;100.00;99723.23;1732092;79;21044;-79
2021/06/01 01:19:13;;;;;;;12.58;6.45;;;;;;;11.27;100.00;99724.77;1732435;83;21160;-77
2021/06/01 01:21:49;;;;;;;12.63;7.30;;;;;;;11.24;100.00;99727.31;1682205;84;21148;-78
2021/06/01 01:24:39;;;;;;;12.30;6.87;;;;;;;11.18;100.00;99726.19;1682160;85;21048;-77
2021/06/01 01:27:22;;;;;;;11.48;6.78;;;;;;;11.13;100.00;99726.41;1625558;88;21117;-78
2021/06/01 01:29:50;;;;;;;13.20;7.42;;;;;;;11.13;100.00;99722.35;1603977;89;21963;-80
2021/06/01 01:32:38;;;;;;;13.05;6.95;;;;;;;11.10;100.00;99722.22;1624290;88;21077;-79
2021/06/01 01:35:06;;;;;;;13.43;7.22;;;;;;;11.09;100.00;99723.23;1626383;88;21577;-78
2021/06/01 01:37:33;;;;;;;11.70;6.22;;;;;;;11.07;100.00;99721.22;1629170;87;21090;-79
2021/06/01 01:40:01;;;;;;;11.55;7.05;;;;;;;11.06;100.00;99720.88;1629198;88;21094;-78
2021/06/01 01:42:38;;;;;;;14.55;8.20;;;;;;;11.04;100.00;99715.33;1629205;88;21174;-79
2021/06/01 01:45:03;;;;;;;14.87;7.72;;;;;;;11.00;100.00;99714.34;1571340;90;21164;-77
2021/06/01 01:50:17;;;;;;;15.05;7.80;;;;;;;10.98;100.00;99710.14;1563770;90;21156;-79
2021/06/01 01:52:44;;;;;;;13.55;7.65;;;;;;;10.96;100.00;99710.32;1578172;90;21155;-78
2021/06/01 01:55:12;;;;;;;15.28;7.37;;;;;;;10.95;100.00;99711.33;1598478;90;21119;-79
2021/06/01 01:57:45;;;;;;;14.95;7.65;;;;;;;10.95;100.00;99714.03;1598924;90;21561;-79
2021/06/01 02:00:16;;;;;;;14.03;7.30;;;;;;;10.95;100.00;99710.50;1596754;90;21637;-79
2021/06/01 02:02:46;;;;;;;13.13;7.22;;;;;;;10.94;100.00;99711.02;1578416;90;21646;-80
2021/06/01 02:05:13;;;;;;;14.03;7.22;;;;;;;10.97;100.00;99709.80;1598925;90;21095;-78
2021/06/01 02:07:40;;;;;;;17.50;8.30;;;;;;;10.98;100.00;99712.33;1598922;90;21083;-79
2021/06/01 02:10:10;;;;;;;14.73;7.80;;;;;;;10.92;100.00;99707.62;1598579;90;21135;-78
2021/06/01 02:12:37;;;;;;;15.45;7.35;;;;;;;10.88;100.00;99702.27;1578175;91;21080;-79
2021/06/01 02:15:08;;;;;;;15.63;8.48;;;;;;;10.90;100.00;99704.79;1578989;91;21249;-79
2021/06/01 02:17:37;;;;;;;20.88;10.80;;;;;;;10.90;100.00;99710.20;1591714;88;21076;-81
2021/06/01 02:20:06;;;;;;;25.75;12.73;;;;;;;10.89;100.00;99697.20;1632225;88;21151;-79
2021/06/01 02:25:16;;;;;;;93.10;40.00;;;;;;;10.92;100.00;99708.15;1715510;84;21631;-79
2021/06/01 02:28:04;;;;;;;38.63;23.25;;;;;;;10.90;100.00;99693.97;1684080;85;21671;-78
2021/06/01 02:30:47;;;;;;;28.65;16.20;;;;;;;10.85;100.00;99699.08;1603551;89;21106;-78
2021/06/01 02:33:16;;;;;;;77.58;39.27;;;;;;;10.80;100.00;99696.41;1548251;92;21154;-78
2021/06/01 02:35:43;;;;;;;61.77;28.20;;;;;;;10.80;100.00;99692.84;1548284;93;21134;-79
2021/06/01 02:38:10;;;;;;;292.18;118.90;;;;;;;10.79;100.00;99689.83;1548127;93;21118;-78
2021/06/01 02:40:39;;;;;;;333.07;136.22;;;;;;;10.77;100.00;99695.94;1525171;93;21082;-79
2021/06/01 02:43:11;;;;;;;253.15;105.52;;;;;;;10.74;100.00;99686.30;1551554;92;21564;-80
2021/06/01 02:45:42;;;;;;;161.70;70.87;;;;;;;10.73;100.00;99690.53;1568385;91;21096;-81
2021/06/01 02:48:12;;;;;;;251.90;107.75;;;;;;;10.71;100.00;99686.69;1566640;92;21085;-81
2021/06/01 02:50:42;;;;;;;119.72;55.75;;;;;;;10.67;100.00;99681.30;1550252;93;21111;-79
2021/06/01 02:53:11;;;;;;;124.80;55.50;;;;;;;10.63;100.00;99674.05;1516990;95;21455;-79
2021/06/01 02:55:40;;;;;;;80.75;39.05;;;;;;;10.62;100.00;99677.80;1517181;93;21108;-78
2021/06/01 02:58:08;;;;;;;73.57;36.53;;;;;;;10.66;100.00;99671.52;1517429;95;21106;-78
2021/06/01 03:00:36;;;;;;;85.22;41.05;;;;;;;10.68;100.00;99668.60;1517111;95;21126;-78
2021/06/01 03:03:07;;;;;;;97.00;47.62;;;;;;;10.64;100.00;99666.77;1517454;95;21649;-78
2021/06/01 03:05:34;;;;;;;53.70;24.87;;;;;;;10.60;100.00;99669.52;1517156;95;21697;-80
2021/06/01 03:08:28;;;;;;;35.03;17.77;;;;;;;10.58;100.00;99664.80;1535168;93;21098;-76
2021/06/01 03:10:59;;;;;;;;;;;;;;;10.58;100.00;99662.94;1552791;92;21250;-77
2021/06/01 03:13:26;;;;;;;64.82;29.02;;;;;;;10.60;100.00;99656.83;1550325;93;20338;-79
2021/06/01 03:15:54;;;;;;;37.17;18.80;;;;;;;10.57;100.00;99657.70;1550090;93;21258;-77
2021/06/01 03:18:21;;;;;;;61.83;29.80;;;;;;;10.53;100.00;99649.11;1550165;93;21106;-77
2021/06/01 03:20:49;;;;;;;41.68;20.60;;;;;;;10.51;100.00;99656.56;1550096;91;21117;-77
2021/06/01 03:23:16;;;;;;;59.20;29.63;;;;;;;10.50;100.00;99652.69;1550117;93;21058;-78
2021/06/01 03:25:43;;;;;;;47.57;22.80;;;;;;;10.50;100.00;99646.80;1549967;93;21147;-78
2021/06/01 03:28:09;;;;;;;57.58;28.35;;;;;;;10.52;100.00;99654.20;1553913;91;21178;-78
2021/06/01 03:30:36;;;;;;;67.20;34.20;;;;;;;10.54;100.00;99662.97;1633198;87;21071;-78
2021/06/01 03:33:04;;;;;;;71.30;38.63;;;;;;;10.55;100.00;99663.32;1647873;87;21102;-77
2021/06/01 03:35:31;;;;;;;130.27;65.60;;;;;;;10.51;100.00;99664.68;1647927;87;21068;-79
2021/06/01 03:37:58;;;;;;;69.92;38.15;;;;;;;10.47;100.00;99669.29;1647964;87;21095;-77
2021/06/01 03:40:26;;;;;;;76.50;39.88;;;;;;;10.44;100.00;99670.47;1647920;87;21103;-77
2021/06/01 03:42:53;;;;;;;60.30;31.90;;;;;;;10.39;100.00;99665.63;1648142;87;21092;-79
2021/06/01 03:45:21;;;;;;;49.15;25.45;;;;;;;10.38;100.00;99661.74;1654848;87;21031;-78
2021/06/01 03:47:48;;;;;;;30.80;15.13;;;;;;;10.41;100.00;99668.98;1655457;87;21128;-77
2021/06/01 03:50:14;;;;;;;59.07;30.20;;;;;;;10.41;100.00;99677.09;1708233;82;21051;-76
2021/06/01 03:52:41;;;;;;;101.27;55.00;;;;;;;10.38;100.00;99681.49;1743069;82;21059;-78
2021/06/01 03:55:09;;;;;;;39.75;20.05;;;;;;;10.36;100.00;99674.60;1773546;81;21238;-78
2021/06/01 03:57:36;;;;;;;89.75;45.85;;;;;;;10.35;100.00;99680.49;1773772;81;21064;-78
2021/06/01 04:00:09;;;;;;;64.70;34.77;;;;;;;10.38;100.00;99680.66;1774000;81;21040;-79
2021/06/01 04:02:38;;;;;;;61.57;32.13;;;;;;;10.36;100.00;99685.41;1743824;82;21051;-77
2021/06/01 04:05:06;;;;;;;26.42;12.35;;;;;;;10.35;100.00;99685.06;1743538;82;21079;-77
2021/06/01 04:07:33;;;;;;;34.35;15.93;;;;;;;10.34;100.00;99682.88;1743596;82;21038;-79
2021/06/01 04:10:04;;;;;;;125.30;62.25;;;;;;;10.34;100.00;99685.59;1742920;82;21075;-79
2021/06/01 04:12:31;;;;;;;50.35;26.97;;;;;;;10.34;100.00;99680.18;1773451;81;21072;-78
2021/06/01 04:14:57;;;;;;;62.87;37.67;;;;;;;10.34;100.00;99684.23;1743398;82;21027;-77
2021/06/01 04:17:24;;;;;;;47.17;29.27;;;;;;;10.34;100.00;99680.18;1741649;82;21095;-78
2021/06/01 04:19:52;;;;;;;97.97;47.83;;;;;;;10.35;100.00;99669.68;1743399;82;21056;-77
2021/06/01 04:22:18;;;;;;;51.77;24.47;;;;;;;10.37;100.00;99674.91;1743311;82;21075;-78
2021/06/01 04:24:46;;;;;;;220.48;111.42;;;;;;;10.40;100.00;99669.16;1743586;82;21576;-78
2021/06/01 04:27:12;;;;;;;199.38;104.70;;;;;;;10.44;100.00;99670.47;1745446;81;21041;-79
2021/06/01 04:29:39;;;;;;;231.40;120.60;;;;;;;10.46;100.00;99671.13;1741561;82;21006;-78
2021/06/01 04:32:07;;;;;;;276.23;138.30;;;;;;;10.48;100.00;99666.37;1759928;81;21019;-78
2021/06/01 04:34:36;;;;;;;278.12;138.35;;;;;;;10.48;100.00;99669.08;1759521;81;21040;-80
2021/06/01 04:37:03;;;;;;;320.90;178.37;;;;;;;10.47;100.00;99663.36;1759605;81;21052;-79
2021/06/01 04:39:30;;;;;;;381.13;153.95;;;;;;;10.46;100.00;99660.31;1759587;81;21060;-80
2021/06/01 04:41:57;;;;;;;112.50;46.53;;;;;;;10.46;100.00;99664.38;1759709;81;21048;-80
2021/06/01 04:44:24;;;;;;;149.30;69.17;;;;;;;10.46;100.00;99664.38;1750802;81;21184;-78
2021/06/01 04:46:51;;;;;;;84.15;44.80;;;;;;;10.45;100.00;99662.70;1744478;82;21047;-78
2021/06/01 04:49:18;;;;;;;52.35;28.98;;;;;;;10.44;100.00;99665.06;1744140;82;21060;-79
2021/06/01 04:51:45;;;;;;;48.87;27.30;;;;;;;10.44;100.00;99660.49;1743984;82;21064;-78
2021/06/01 04:54:12;;;;;;;31.73;16.82;;;;;;;10.46;100.00;99661.67;1744255;82;21783;-78
2021/06/01 04:56:39;;;;;;;36.70;18.05;;;;;;;10.49;100.00;99660.48;1744185;82;21080;-78
2021/06/01 04:59:06;;;;;;;28.73;15.10;;;;;;;10.49;100.00;99661.31;1744167;82;21068;-77
2021/06/01 05:01:33;;;;;;;55.80;30.55;;;;;;;10.49;100.00;99660.48;1744102;82;21104;-77
2021/06/01 05:04:00;;;;;;;26.05;13.28;;;;;;;10.46;100.00;99656.27;1744068;82;21043;-79
2021/06/01 05:06:26;;;;;;;390.18;122.92;;;;;;;10.45;100.00;99659.48;1754783;79;21041;-78
2021/06/01 05:08:53;;;;;;;573.35;247.48;;;;;;;10.49;100.00;99649.16;1743752;82;21029;-77
2021/06/01 05:11:21;;;;;;;143.15;58.28;;;;;;;10.48;100.00;99660.97;1744527;81;21530;-79
2021/06/01 05:13:48;;;;;;;89.10;39.45;;;;;;;10.47;100.00;99648.50;1746305;82;21136;-81
2021/06/01 05:16:15;;;;;;;132.27;60.20;;;;;;;10.51;100.00;99647.62;1746318;81;21097;-78
2021/06/01 05:18:43;;;;;;;106.35;49.67;;;;;;;10.58;100.00;99648.59;1746314;82;21100;-76
2021/06/01 05:21:10;;;;;;;175.78;87.57;;;;;;;10.58;100.00;99648.06;1754828;81;21565;-73
2021/06/01 05:23:37;;;;;;;92.47;45.15;;;;;;;10.60;100.00;99651.94;1762458;81;21057;-75
2021/06/01 05:26:03;;;;;;;144.43;68.20;;;;;;;10.61;100.00;99642.83;1759739;81;21076;-74
2021/06/01 05:28:31;;;;;;;97.17;47.17;;;;;;;10.65;100.00;99654.95;1766722;79;20965;-78
2021/06/01 05:31:08;;;;;;;172.10;108.20;;;;;;;10.69;100.00;99648.66;1762610;81;21037;-75
2021/06/01 05:33:34;;;;;;;289.20;122.55;;;;;;;10.74;100.00;99657.91;1742335;82;21079;-76
2021/06/01 05:36:01;;;;;;;134.32;51.95;;;;;;;10.78;100.00;99649.78;1747239;82;21075;-79
2021/06/01 05:38:32;;;;;;;218.95;101.67;;;;;;;10.79;100.00;99643.86;1717388;83;21058;-79
2021/06/01 05:41:00;;;;;;;132.47;81.37;;;;;;;10.75;100.00;99651.49;1738824;82;21036;-80
2021/06/01 05:43:29;;;;;;;54.80;29.48;;;;;;;10.73;100.00;99648.63;1724439;82;21082;-76
2021/06/01 05:45:56;;;;;;;74.07;49.20;;;;;;;10.73;100.00;99643.22;1746831;81;21542;-79
2021/06/01 05:48:24;;;;;;;38.55;23.02;;;;;;;10.71;100.00;99645.27;1747792;81;21093;-79
2021/06/01 05:50:51;;;;;;;47.38;27.07;;;;;;;10.70;100.00;99644.95;1733965;81;21064;-76
2021/06/01 05:53:19;;;;;;;86.32;43.38;;;;;;;10.71;100.00;99659.65;1759266;80;21076;-79
2021/06/01 05:55:46;;;;;;;152.60;80.22;;;;;;;10.70;100.00;99657.13;1759689;81;21137;-78
2021/06/01 05:58:13;;;;;;;73.92;37.83;;;;;;;10.71;100.00;99647.48;1759819;81;21091;-77
2021/06/01 06:00:40;;;;;;;97.47;54.45;;;;;;;10.69;100.00;99649.50;1759531;81;21072;-79
2021/06/01 06:03:07;;;;;;;30.68;16.52;;;;;;;10.67;100.00;99642.09;1760640;80;21018;-77
2021/06/01 06:05:33;;;;;;;24.90;12.70;;;;;;;10.67;100.00;99652.06;1759782;81;21050;-79
2021/06/01 06:08:12;;;;;;;25.50;13.15;;;;;;;10.65;100.00;99642.78;1759698;81;21053;-78
2021/06/01 06:10:41;;;;;;;23.73;10.93;;;;;;;10.64;100.00;99639.73;1759695;81;21022;-78
2021/06/01 06:13:08;;;;;;;52.03;28.42;;;;;;;10.65;100.00;99640.08;1727773;82;21095;-75
2021/06/01 06:15:36;;;;;;;58.78;33.15;;;;;;;10.68;100.00;99633.45;1751216;82;21566;-77
2021/06/01 06:18:29;;;;;;;90.07;44.42;;;;;;;10.69;100.00;99633.80;1757863;82;21553;-75
2021/06/01 06:21:05;;;;;;;148.53;64.62;;;;;;;10.72;100.00;99617.22;1757564;82;21112;-75
2021/06/01 06:23:38;;;;;;;229.97;115.42;;;;;;;10.81;100.00;99624.23;1739811;82;21652;-74
2021/06/01 06:26:05;;;;;;;119.05;57.00;;;;;;;10.89;100.00;99612.48;1740354;82;21102;-76
2021/06/01 06:28:33;;;;;;;41.33;21.97;;;;;;;10.93;100.00;99614.65;1739708;82;21019;-73
2021/06/01 06:31:00;;;;;;;46.83;24.32;;;;;;;10.95;100.00;99623.94;1739535;82;21145;-72
2021/06/01 06:33:27;;;;;;;120.10;51.20;;;;;;;10.99;100.00;99627.42;1756351;82;21111;-75
2021/06/01 06:35:54;;;;;;;419.52;158.40;;;;;;;11.01;100.00;99629.45;1752283;82;21601;-75
2021/06/01 06:38:28;;;;;;;474.98;173.85;;;;;;;11.01;100.00;99634.87;1757464;82;21005;-75
2021/06/01 06:41:13;;;;;;;377.40;135.22;;;;;;;11.00;100.00;99631.82;1713129;83;21032;-75
2021/06/01 06:43:45;;;;;;;276.35;95.55;;;;;;;10.98;100.00;99620.87;1728005;83;21617;-76
2021/06/01 06:46:22;;;;;;;269.93;100.55;;;;;;;10.98;100.00;99623.05;1741067;82;21032;-77
2021/06/01 06:48:41;;;;;;;168.70;69.42;;;;;;;11.00;100.00;99619.65;1743958;82;20991;-77
2021/06/01 06:51:15;;;;;;;937.88;403.98;;;;;;;10.99;100.00;99633.35;1760884;81;21049;-76
2021/06/01 06:53:51;;;;;;;775.25;358.93;;;;;;;10.97;100.00;99626.77;1738583;82;21001;-78
2021/06/01 06:56:17;;;;;;;421.53;163.77;;;;;;;10.98;100.00;99628.98;1737796;82;22170;-77
2021/06/01 06:58:45;;;;;;;290.70;119.25;;;;;;;10.97;100.00;99634.05;1738083;82;21062;-77
2021/06/01 07:01:12;;;;;;;205.85;86.97;;;;;;;10.98;100.00;99622.22;1738742;82;21061;-76
2021/06/01 07:03:39;;;;;;;97.27;41.10;;;;;;;11.04;100.00;99623.34;1739114;82;21135;-81
2021/06/01 07:06:06;;;;;;;82.82;35.85;;;;;;;11.08;100.00;99621.94;1738767;82;21053;-79
2021/06/01 07:08:33;;;;;;;109.12;47.13;;;;;;;11.09;100.00;99632.58;1739375;82;21076;-77
2021/06/01 07:11:01;;;;;;;87.30;37.93;;;;;;;11.12;100.00;99626.81;1750463;81;21072;-77
2021/06/01 07:13:44;;;;;;;98.47;43.30;;;;;;;11.14;100.00;99620.70;1747992;81;21076;-77
2021/06/01 07:16:13;;;;;;;278.80;125.95;;;;;;;11.12;100.00;99621.89;1773761;80;21044;-75
2021/06/01 07:18:41;;;;;;;318.27;149.55;;;;;;;11.09;100.00;99614.17;1762002;80;21067;-76
2021/06/01 07:21:09;;;;;;;212.90;104.30;;;;;;;11.06;100.00;99628.05;1747961;81;21046;-79
2021/06/01 07:23:36;;;;;;;91.50;47.25;;;;;;;11.04;100.00;99620.12;1763753;81;21002;-77
2021/06/01 07:26:03;;;;;;;88.07;46.50;;;;;;;11.07;100.00;99622.98;1763643;80;21027;-76
2021/06/01 07:28:32;;;;;;;93.62;47.08;;;;;;;11.08;100.00;99620.07;1760214;80;21118;-77
2021/06/01 07:31:04;;;;;;;97.95;50.75;;;;;;;11.09;100.00;99619.58;1763376;80;20986;-76
2021/06/01 07:36:00;;;;;;;104.27;56.08;;;;;;;11.09;100.00;99618.23;1587736;90;21138;-77
2021/06/01 07:38:28;;;;;;;156.93;62.85;;;;;;;11.03;100.00;99621.16;1572039;90;21420;-79
2021/06/01 07:40:55;;;;;;;80.35;36.93;;;;;;;11.01;100.00;99624.05;1612547;89;21761;-75
2021/06/01 07:43:21;;;;;;;74.32;35.05;;;;;;;11.00;100.00;99622.88;1607903;89;21098;-76
2021/06/01 07:45:48;;;;;;;184.07;82.53;;;;;;;10.99;100.00;99622.02;1575320;90;21157;-76
2021/06/01 07:48:16;;;;;;;249.07;108.15;;;;;;;10.98;100.00;99617.64;1578865;90;21027;-75
2021/06/01 07:50:43;;;;;;;84.30;46.23;;;;;;;10.97;100.00;99613.24;1587960;90;21076;-76
2021/06/01 07:53:10;;;;;;;55.80;30.15;;;;;;;10.97;100.00;99609.70;1586285;90;21053;-79
2021/06/01 07:55:37;;;;;;;48.40;24.35;;;;;;;10.98;100.00;99605.99;1577226;91;21094;-77
2021/06/01 07:58:04;;;;;;;37.05;19.40;;;;;;;11.00;100.00;99611.53;1566658;91;21149;-76
2021/06/01 08:00:31;;;;;;;55.75;28.90;;;;;;;11.00;100.00;99613.41;1584764;90;21625;-74
2021/06/01 08:02:58;;;;;;;44.67;24.77;;;;;;;10.98;100.00;99610.88;1597711;90;21084;-74
2021/06/01 08:05:25;;;;;;;47.50;26.90;;;;;;;10.99;100.00;99621.18;1575538;90;21084;-74
2021/06/01 08:07:52;;;;;;;47.03;26.57;;;;;;;10.98;100.00;99619.52;1577965;90;21060;-74
2021/06/01 08:10:22;;;;;;;95.72;48.92;;;;;;;10.95;100.00;99615.30;1573854;91;21290;-74
2021/06/01 08:12:50;;;;;;;132.82;60.25;;;;;;;10.95;100.00;99619.36;1574661;91;21070;-80
2021/06/01 08:15:21;;;;;;;111.85;52.58;;;;;;;10.96;100.00;99618.34;1578954;90;21163;-80
2021/06/01 08:17:51;;;;;;;100.67;47.20;;;;;;;10.96;100.00;99616.99;1575298;90;21066;-79
2021/06/01 08:20:28;;;;;;;89.42;39.40;;;;;;;10.95;100.00;99608.53;1576629;90;21161;-80
2021/06/01 08:22:46;;;;;;;44.35;21.02;;;;;;;10.95;100.00;99626.13;1588980;90;21155;-78
2021/06/01 08:25:13;;;;;;;69.85;34.95;;;;;;;10.96;100.00;99617.48;1590346;90;21064;-80
2021/06/01 08:27:40;;;;;;;50.25;24.67;;;;;;;10.97;100.00;99616.47;1594951;90;21128;-77
2021/06/01 08:30:08;;;;;;;44.75;23.20;;;;;;;10.96;100.00;99608.02;1628471;86;21004;-80
2021/06/01 08:32:36;;;;;;;25.82;12.43;;;;;;;10.98;100.00;99599.23;1658205;85;21171;-79
2021/06/01 08:35:05;;;;;;;42.65;20.30;;;;;;;11.00;100.00;99593.95;1669476;85;21248;-79
2021/06/01 08:37:32;;;;;;;40.17;20.00;;;;;;;11.04;100.00;99594.94;1659284;85;21091;-80
2021/06/01 08:39:59;;;;;;;31.57;14.75;;;;;;;11.10;100.00;99592.83;1734043;81;21034;-80
2021/06/01 08:42:27;;;;;;;49.03;24.18;;;;;;;11.18;100.00;99586.82;1752816;81;21067;-80
2021/06/01 08:44:55;;;;;;;63.45;33.95;;;;;;;11.24;100.00;99595.22;1730718;81;21044;-78
2021/06/01 08:47:22;;;;;;;40.52;21.07;;;;;;;11.26;100.00;99595.38;1737044;81;21055;-79
2021/06/01 08:49:51;;;;;;;24.75;12.88;;;;;;;11.29;100.00;99588.22;1762868;81;20993;-78
2021/06/01 08:52:18;;;;;;;49.27;25.05;;;;;;;11.28;100.00;99606.86;1753020;81;21016;-80
2021/06/01 08:54:45;;;;;;;57.85;31.12;;;;;;;11.24;100.00;99596.05;1746409;82;21039;-80
2021/06/01 08:57:12;;;;;;;28.75;16.42;;;;;;;11.24;100.00;99587.94;1745348;82;21026;-78
2021/06/01 08:59:41;;;;;;;61.77;31.17;;;;;;;11.25;100.00;99565.80;1760511;81;21533;-79
2021/06/01 09:02:08;;;;;;;25.43;14.53;;;;;;;11.29;100.00;99581.98;1759920;81;21031;-76
2021/06/01 09:04:52;;;;;;;28.27;13.35;;;;;;;11.31;100.00;99582.10;1768793;80;21609;-78
2021/06/01 09:21:12;;;;;;;51.92;29.30;;;;;;;11.31;100.00;99567.21;1543722;93;21130;-77
2021/06/01 09:23:59;;;;;;;96.12;45.90;;;;;;;11.32;100.00;99572.97;1541260;93;21098;-79
2021/06/01 09:29:35;;;;;;;51.15;26.20;;;;;;;11.37;100.00;99581.89;1536280;93;21616;-78
2021/06/01 09:32:16;;;;;;;22.45;12.15;;;;;;;11.42;100.00;99575.89;1536493;93;21138;-80
2021/06/01 09:34:50;;;;;;;37.53;18.87;;;;;;;11.43;100.00;99580.30;1534604;92;21166;-79
2021/06/01 09:37:27;;;;;;;52.48;24.98;;;;;;;11.41;100.00;99577.77;1522978;94;21139;-80
2021/06/01 09:40:10;;;;;;;33.30;17.65;;;;;;;11.41;100.00;99577.77;1522591;94;21200;-80
2021/06/01 09:42:44;;;;;;;43.00;21.60;;;;;;;11.44;100.00;99585.52;1522085;92;21151;-82
2021/06/01 09:45:17;;;;;;;;;;;;;;;11.43;100.00;99583.00;1524620;94;21160;-80
2021/06/01 09:47:57;;;;;;;28.40;13.88;;;;;;;11.42;100.00;99580.81;1524530;94;20196;-80
2021/06/01 09:53:06;;;;;;;18.35;8.55;;;;;;;11.38;100.00;99580.36;1577159;90;21147;-81
2021/06/01 09:55:42;;;;;;;15.35;7.60;;;;;;;11.40;100.00;99576.94;1571400;91;21140;-77
2021/06/01 09:58:13;;;;;;;31.00;15.30;;;;;;;11.44;100.00;99580.11;1571165;91;21118;-78
2021/06/01 10:00:41;;;;;;;19.67;9.58;;;;;;;11.50;100.00;99572.58;1571192;91;21052;-77
2021/06/01 10:03:21;;;;;;;19.10;9.28;;;;;;;11.56;100.00;99579.95;1593665;88;21041;-81
2021/06/01 10:05:54;;;;;;;25.12;13.08;;;;;;;11.57;100.00;99564.02;1599514;89;21083;-79
2021/06/01 10:08:26;;;;;;;29.67;14.00;;;;;;;11.54;100.00;99565.77;1601222;90;21116;-80
2021/06/01 10:10:57;;;;;;;20.15;8.80;;;;;;;11.52;100.00;99559.68;1621570;87;21174;-79
2021/06/01 10:13:29;;;;;;;37.25;19.92;;;;;;;11.54;100.00;99556.30;1617189;87;21144;-78
2021/06/01 10:15:59;;;;;;;30.85;14.78;;;;;;;11.59;100.00;99558.42;1580969;90;21063;-78
2021/06/01 10:18:29;;;;;;;23.12;11.97;;;;;;;11.60;100.00;99554.69;1635784;87;21592;-79
2021/06/01 10:21:01;;;;;;;54.88;25.60;;;;;;;11.58;100.00;99563.00;1633011;86;21087;-79
2021/06/01 10:25:58;;;;;;;100.50;39.15;;;;;;;11.51;100.00;99547.69;1609658;89;21084;-78
2021/06/01 10:30:56;;;;;;;85.03;42.62;;;;;;;11.50;100.00;99550.09;1567323;92;21059;-78
2021/06/01 10:33:23;;;;;;;132.90;66.00;;;;;;;11.52;100.00;99551.56;1567355;92;21081;-77
2021/06/01 10:36:03;;;;;;;79.85;43.75;;;;;;;11.54;100.00;99555.44;1547652;92;21133;-81
2021/06/01 10:52:15;;;;;;;53.65;31.30;;;;;;;11.64;100.00;99525.36;1527226;92;21112;-78
2021/06/01 10:54:49;;;;;;;56.35;31.17;;;;;;;11.71;100.00;99525.75;1525954;94;21150;-78
2021/06/01 10:57:17;;;;;;;35.52;18.48;;;;;;;11.76;100.00;99528.73;1525974;94;21713;-80
2021/06/01 11:02:20;;;;;;;106.50;54.85;;;;;;;11.76;100.00;99526.55;1522159;93;21148;-76
2021/06/01 11:05:13;;;;;;;31.87;16.48;;;;;;;11.76;100.00;99537.38;1521697;94;21170;-78
2021/06/01 11:10:47;;;;;;;77.95;35.25;;;;;;;11.68;100.00;99527.48;1565399;91;21160;-76
2021/06/01 11:13:26;;;;;;;120.70;57.78;;;;;;;11.63;100.00;99528.56;1540443;93;21105;-75
2021/06/01 11:15:56;;;;;;;55.95;27.82;;;;;;;11.64;100.00;99514.53;1562619;92;21573;-77
2021/06/01 11:18:37;;;;;;;65.75;36.20;;;;;;;11.64;100.00;99511.83;1539057;93;21557;-73
2021/06/01 11:21:12;;;;;;;20.70;9.73;;;;;;;11.59;100.00;99512.39;1533159;91;21140;-73
2021/06/01 11:33:08;;;;;;;36.65;18.20;;;;;;;11.78;100.00;99506.35;1552816;92;21627;-75
2021/06/01 11:35:45;;;;;;;166.22;74.95;;;;;;;11.74;100.00;99508.30;1549686;91;21117;-75
2021/06/01 11:40:57;;;;;;;20.57;9.68;;;;;;;11.67;100.00;99505.52;1552376;92;21130;-75
2021/06/01 11:43:21;;;;;;;70.40;33.60;;;;;;;11.66;100.00;99512.47;1549978;92;21146;-77
2021/06/01 11:46:22;;;;;;;39.00;18.75;;;;;;;11.64;100.00;99520.78;1551529;90;21078;-74
2021/06/01 11:51:26;;;;;;;60.25;30.57;;;;;;;11.51;100.00;99510.64;1521408;89;21098;-76
2021/06/01 11:54:05;;;;;;;121.82;59.20;;;;;;;11.52;100.00;99516.89;1481410;97;21272;-77
2021/06/01 12:02:43;;;;;;;15.98;8.53;;;;;;;11.50;100.00;99524.36;1481874;97;21078;-78
2021/06/01 12:18:58;;;;;;;37.65;21.27;;;;;;;11.48;100.00;99498.83;1510004;94;21122;-79
2021/06/01 12:21:37;;;;;;;9.35;6.33;;;;;;;11.38;100.00;99495.58;1492370;95;21119;-82
2021/06/01 12:24:13;;;;;;;9.38;5.08;;;;;;;11.33;100.00;99498.01;1456808;99;21214;-82
2021/06/01 12:27:02;;;;;;;8.43;5.62;;;;;;;11.31;100.00;99508.19;1459398;98;21222;-78
2021/06/01 12:32:26;;;;;;;9.73;5.53;;;;;;;11.31;100.00;99508.19;1435445;100;21146;-83
2021/06/01 12:35:01;;;;;;;13.18;7.15;;;;;;;11.30;100.00;99513.30;1435565;100;21255;-80
2021/06/01 12:43:28;;;;;;;8.33;5.42;;;;;;;11.22;100.00;99525.04;1444115;99;21126;-76
2021/06/01 12:46:04;;;;;;;10.10;5.85;;;;;;;11.20;100.00;99514.92;1427850;100;21125;-80
2021/06/01 13:46:20;;;;;;;6.77;4.77;;;;;;;10.56;100.00;99516.30;1357112;105;21144;-78
2021/06/01 13:56:48;;;;;;;5.40;3.77;;;;;;;10.55;100.00;99517.83;1384395;102;21192;-78
2021/06/01 13:59:34;;;;;;;6.03;4.00;;;;;;;10.53;100.00;99507.72;1411054;102;21187;-76
2021/06/01 14:10:39;;;;;;;7.17;4.50;;;;;;;10.45;100.00;99514.05;1410913;102;21114;-78
2021/06/01 14:32:03;;;;;;;3.85;3.47;;;;;;;10.33;100.00;99500.64;1533815;93;21058;-78
2021/06/01 15:04:24;;;;;;;10.33;5.30;;;;;;;10.20;100.00;99516.09;1549763;93;21127;-80